Time;durP1;ratioP1;P1;durP2;ratioP2;P2;SDS_P1;SDS_P2;PMS_P1;PMS_P2;Temp;Humidity;BMP_temperature;BMP_pressure;BME280_temperature;BME280_humidity;BME280_pressure;Samples;Min_cycle;Max_cycle;Signal;HPM_P1;HPM_P2
2023/02/19 00:01:59;;;;;;;13.80;6.40;;;;;;;2.06;84.07;99511.69;102988;1259;138168;-66
2023/02/19 00:04:29;;;;;;;10.90;5.60;;;;;;;2.07;84.18;99509.27;103058;1258;97886;-66
2023/02/19 00:06:56;;;;;;;11.80;6.40;;;;;;;2.09;84.11;99501.88;102951;1256;111529;-66
2023/02/19 00:09:24;;;;;;;11.90;5.60;;;;;;;2.12;83.99;99496.70;102940;1256;138148;-66
2023/02/19 00:11:51;;;;;;;10.60;5.70;;;;;;;2.14;83.82;99502.67;102886;1256;97672;-66
2023/02/19 00:14:21;;;;;;;12.90;5.70;;;;;;;2.16;83.87;99502.69;102937;1256;137962;-66
2023/02/19 00:16:49;;;;;;;7.50;4.50;;;;;;;2.18;83.59;99505.92;103051;1259;97775;-66
2023/02/19 00:19:21;;;;;;;10.00;5.20;;;;;;;2.21;83.48;99503.14;103028;1258;111154;-66
2023/02/19 00:21:50;;;;;;;8.90;4.30;;;;;;;2.22;83.29;99499.70;102938;1256;138129;-66
2023/02/19 00:24:17;;;;;;;9.90;4.90;;;;;;;2.26;83.31;99497.94;103122;1256;97786;-66
2023/02/19 00:26:47;;;;;;;9.00;4.70;;;;;;;2.28;83.05;99495.68;102971;1260;137868;-66
2023/02/19 00:29:17;;;;;;;12.00;4.30;;;;;;;2.30;83.12;99497.88;102957;1256;98000;-66
2023/02/19 00:31:45;;;;;;;12.20;4.60;;;;;;;2.32;82.93;99494.09;103037;1256;138192;-66
2023/02/19 00:34:16;;;;;;;11.30;4.90;;;;;;;2.34;82.90;99491.69;103087;1258;107995;-66
2023/02/19 00:36:44;;;;;;;9.00;5.30;;;;;;;2.35;82.96;99486.02;102332;1260;1003572;-66
2023/02/19 00:39:14;;;;;;;11.00;5.20;;;;;;;2.35;82.83;99487.89;102253;1256;1003607;-65
2023/02/19 00:41:43;;;;;;;11.50;5.70;;;;;;;2.37;82.95;99489.25;103218;1260;97902;-67
2023/02/19 00:44:13;;;;;;;12.90;5.30;;;;;;;2.38;82.97;99487.69;103022;1256;138109;-65
2023/02/19 00:46:44;;;;;;;11.10;5.30;;;;;;;2.39;82.93;99491.80;103086;1261;107841;-66
2023/02/19 00:49:16;;;;;;;11.70;5.50;;;;;;;2.40;82.96;99482.86;103092;1256;98330;-65
2023/02/19 00:51:47;;;;;;;11.20;5.50;;;;;;;2.41;82.83;99484.23;102263;1258;1002839;-66
2023/02/19 00:54:18;;;;;;;9.80;4.90;;;;;;;2.41;82.83;99485.77;102962;1261;98493;-65
2023/02/19 00:56:56;;;;;;;12.60;5.50;;;;;;;2.43;82.46;99486.09;102813;1258;137747;-66
2023/02/19 00:59:24;;;;;;;10.70;4.90;;;;;;;2.44;82.25;99492.59;102974;1259;107017;-67
2023/02/19 01:01:51;;;;;;;10.10;4.20;;;;;;;2.45;82.35;99497.73;102277;1256;1002596;-67
2023/02/19 01:04:30;;;;;;;11.70;4.40;;;;;;;2.46;82.14;99495.15;103048;1256;108617;-67
2023/02/19 01:06:57;;;;;;;10.50;5.00;;;;;;;2.46;81.96;99493.43;103126;1261;97796;-67
2023/02/19 01:09:32;;;;;;;9.30;4.50;;;;;;;2.47;81.96;99489.11;102255;1261;1015730;-67
2023/02/19 01:11:59;;;;;;;9.70;4.30;;;;;;;2.48;81.79;99485.33;103086;1256;107794;-67
2023/02/19 01:14:27;;;;;;;10.40;4.50;;;;;;;2.49;81.71;99483.42;102944;1261;138120;-67
2023/02/19 01:16:54;;;;;;;9.30;4.00;;;;;;;2.50;81.69;99481.71;102347;1256;1003167;-67
2023/02/19 01:19:22;;;;;;;9.80;4.30;;;;;;;2.50;81.47;99484.63;103097;1256;97784;-67
2023/02/19 01:21:49;;;;;;;11.90;4.80;;;;;;;2.49;81.43;99484.98;102990;1260;137742;-67
2023/02/19 01:24:16;;;;;;;9.50;4.90;;;;;;;2.50;81.63;99487.70;102940;1256;107173;-66
2023/02/19 01:26:44;;;;;;;9.90;4.40;;;;;;;2.50;81.62;99479.64;102925;1259;138023;-66
2023/02/19 01:29:11;;;;;;;12.80;4.80;;;;;;;2.51;81.60;99475.00;103028;1256;109118;-66
2023/02/19 01:31:46;;;;;;;11.70;5.10;;;;;;;2.52;81.37;99472.77;102178;1256;1003534;-67
2023/02/19 01:34:25;;;;;;;11.90;4.50;;;;;;;2.52;81.71;99479.30;103105;1256;111409;-66
2023/02/19 01:37:09;;;;;;;10.70;5.00;;;;;;;2.52;81.67;99479.13;103055;1260;107004;-66
2023/02/19 01:39:37;;;;;;;10.30;5.00;;;;;;;2.52;81.64;99481.88;103060;1260;138149;-66
2023/02/19 01:42:12;;;;;;;12.80;4.90;;;;;;;2.51;81.53;99480.66;103019;1256;107776;-66
2023/02/19 01:45:22;;;;;;;11.30;5.00;;;;;;;2.52;81.55;99486.68;102914;1255;138170;-65
2023/02/19 01:47:55;;;;;;;9.40;4.60;;;;;;;2.52;81.46;99490.45;103039;1256;113859;-66
2023/02/19 01:50:23;;;;;;;8.90;4.80;;;;;;;2.53;81.51;99489.24;102975;1260;138596;-66
2023/02/19 01:52:53;;;;;;;11.50;5.00;;;;;;;2.55;81.44;99486.14;103131;1256;98396;-66
2023/02/19 01:55:22;;;;;;;12.80;4.70;;;;;;;2.55;81.30;99485.78;102982;1260;109553;-66
2023/02/19 01:58:00;;;;;;;9.10;3.60;;;;;;;2.54;81.05;99477.56;103043;1258;97956;-66
2023/02/19 02:00:28;;;;;;;10.70;4.20;;;;;;;2.55;80.90;99484.08;103073;1254;111902;-66
2023/02/19 02:03:00;;;;;;;11.00;3.90;;;;;;;2.55;80.82;99480.30;102924;1261;138339;-66
2023/02/19 02:05:50;;;;;;;12.30;4.10;;;;;;;2.54;80.80;99478.08;102243;1259;1003506;-66
2023/02/19 02:11:24;;;;;;;10.80;4.40;;;;;;;2.53;80.78;99484.27;102247;1260;1003659;-65
2023/02/19 02:13:52;;;;;;;10.20;4.00;;;;;;;2.53;80.70;99483.76;102955;1260;138539;-66
2023/02/19 02:16:49;;;;;;;12.50;5.80;;;;;;;2.53;80.92;99477.58;103013;1262;106693;-65
2023/02/19 02:19:56;;;;;;;12.00;4.70;;;;;;;2.52;80.92;99477.93;103133;1260;97815;-66
2023/02/19 02:22:32;;;;;;;13.40;5.00;;;;;;;2.53;81.07;99483.25;102355;1257;1004300;-66
2023/02/19 02:25:42;;;;;;;13.90;5.10;;;;;;;2.52;81.20;99477.24;103058;1261;97742;-66
2023/02/19 02:28:29;;;;;;;11.40;4.70;;;;;;;2.51;81.38;99482.04;102270;1262;1003456;-66
2023/02/19 02:31:04;;;;;;;13.50;6.10;;;;;;;2.51;81.52;99483.25;102935;1261;108462;-66
2023/02/19 02:33:41;;;;;;;18.40;5.30;;;;;;;2.49;81.59;99477.42;102224;1260;1002897;-66
2023/02/19 02:36:12;;;;;;;11.60;5.00;;;;;;;2.49;81.83;99489.27;102323;1260;1002754;-66
2023/02/19 02:38:43;;;;;;;13.10;4.60;;;;;;;2.49;81.80;99491.16;102171;1270;1003051;-66
2023/02/19 02:41:12;;;;;;;13.40;4.40;;;;;;;2.48;81.92;99487.39;102963;1259;111441;-66
2023/02/19 02:43:43;;;;;;;10.00;4.60;;;;;;;2.47;82.02;99487.92;102907;1258;108440;-66
2023/02/19 02:46:38;;;;;;;12.60;4.20;;;;;;;2.45;82.08;99482.63;103004;1259;97680;-66
2023/02/19 02:49:17;;;;;;;10.30;4.00;;;;;;;2.42;82.12;99478.55;102951;1256;108020;-66
2023/02/19 02:51:51;;;;;;;11.60;4.20;;;;;;;2.40;82.13;99483.54;102880;1262;138420;-66
2023/02/19 02:57:14;;;;;;;8.30;4.20;;;;;;;2.40;82.36;99484.06;102704;1261;138172;-66
2023/02/19 03:00:09;;;;;;;11.90;3.90;;;;;;;2.39;82.35;99483.90;103007;1260;99615;-66
